sensor_id;sensor_type;location;lat;lon;timestamp;temperature;humidity
25568;DHT22;13455;51.480;7.594;2024-01-07T00:01:34;2.40;99.90
25568;DHT22;13455;51.480;7.594;2024-01-07T00:03:59;2.40;99.90
25568;DHT22;13455;51.480;7.594;2024-01-07T00:06:25;2.30;99.90
25568;DHT22;13455;51.480;7.594;2024-01-07T00:08:50;2.30;99.90
25568;DHT22;13455;51.480;7.594;2024-01-07T00:11:16;2.30;99.90
25568;DHT22;13455;51.480;7.594;2024-01-07T00:13:42;2.40;99.90
25568;DHT22;13455;51.480;7.594;2024-01-07T00:16:07;2.40;99.90
25568;DHT22;13455;51.480;7.594;2024-01-07T00:18:33;2.80;99.90
25568;DHT22;13455;51.480;7.594;2024-01-07T00:20:58;2.40;99.90
25568;DHT22;13455;51.480;7.594;2024-01-07T00:23:24;2.30;99.90
25568;DHT22;13455;51.480;7.594;2024-01-07T00:25:50;2.40;99.90
25568;DHT22;13455;51.480;7.594;2024-01-07T00:28:15;2.50;99.90
25568;DHT22;13455;51.480;7.594;2024-01-07T00:30:41;2.50;99.90
25568;DHT22;13455;51.480;7.594;2024-01-07T00:33:07;2.50;99.90
25568;DHT22;13455;51.480;7.594;2024-01-07T00:35:32;2.40;99.90
25568;DHT22;13455;51.480;7.594;2024-01-07T00:37:58;2.30;99.90
25568;DHT22;13455;51.480;7.594;2024-01-07T00:40:24;2.30;99.90
25568;DHT22;13455;51.480;7.594;2024-01-07T00:42:49;2.20;99.90
25568;DHT22;13455;51.480;7.594;2024-01-07T00:45:16;2.10;99.90
25568;DHT22;13455;51.480;7.594;2024-01-07T00:47:42;2.20;99.90
25568;DHT22;13455;51.480;7.594;2024-01-07T00:50:08;2.20;99.90
25568;DHT22;13455;51.480;7.594;2024-01-07T00:52:33;2.20;99.90
25568;DHT22;13455;51.480;7.594;2024-01-07T00:55:00;2.20;99.90
25568;DHT22;13455;51.480;7.594;2024-01-07T00:57:28;2.20;99.90
25568;DHT22;13455;51.480;7.594;2024-01-07T00:59:54;2.10;99.90
25568;DHT22;13455;51.480;7.594;2024-01-07T01:02:20;2.10;99.90
25568;DHT22;13455;51.480;7.594;2024-01-07T01:04:45;2.10;99.90
25568;DHT22;13455;51.480;7.594;2024-01-07T01:07:11;2.10;99.90
25568;DHT22;13455;51.480;7.594;2024-01-07T01:09:36;2.10;99.90
25568;DHT22;13455;51.480;7.594;2024-01-07T01:12:02;2.70;99.90
25568;DHT22;13455;51.480;7.594;2024-01-07T01:14:28;2.10;99.90
25568;DHT22;13455;51.480;7.594;2024-01-07T01:16:53;2.20;99.90
25568;DHT22;13455;51.480;7.594;2024-01-07T01:19:19;2.20;99.90
25568;DHT22;13455;51.480;7.594;2024-01-07T01:21:44;2.10;99.90
25568;DHT22;13455;51.480;7.594;2024-01-07T01:24:10;2.10;99.90
25568;DHT22;13455;51.480;7.594;2024-01-07T01:26:35;2.10;99.90
25568;DHT22;13455;51.480;7.594;2024-01-07T01:29:01;2.10;99.90
25568;DHT22;13455;51.480;7.594;2024-01-07T01:31:27;2.00;99.90
25568;DHT22;13455;51.480;7.594;2024-01-07T01:33:52;2.00;99.90
25568;DHT22;13455;51.480;7.594;2024-01-07T01:36:18;2.00;99.90
25568;DHT22;13455;51.480;7.594;2024-01-07T01:38:43;2.00;99.90
25568;DHT22;13455;51.480;7.594;2024-01-07T01:41:09;2.00;99.90
25568;DHT22;13455;51.480;7.594;2024-01-07T01:43:35;2.00;99.90
25568;DHT22;13455;51.480;7.594;2024-01-07T01:46:01;1.90;99.90
25568;DHT22;13455;51.480;7.594;2024-01-07T01:50:54;2.10;99.90
25568;DHT22;13455;51.480;7.594;2024-01-07T01:53:26;2.10;99.90
25568;DHT22;13455;51.480;7.594;2024-01-07T01:55:57;1.90;99.90
25568;DHT22;13455;51.480;7.594;2024-01-07T01:58:23;2.00;99.90
25568;DHT22;13455;51.480;7.594;2024-01-07T02:00:49;2.20;99.90
25568;DHT22;13455;51.480;7.594;2024-01-07T02:08:13;1.90;99.90
25568;DHT22;13455;51.480;7.594;2024-01-07T02:10:38;2.00;99.90
25568;DHT22;13455;51.480;7.594;2024-01-07T02:13:04;1.90;99.90
25568;DHT22;13455;51.480;7.594;2024-01-07T02:15:30;1.90;99.90
25568;DHT22;13455;51.480;7.594;2024-01-07T02:17:56;1.90;99.90
25568;DHT22;13455;51.480;7.594;2024-01-07T02:20:22;1.90;99.90
25568;DHT22;13455;51.480;7.594;2024-01-07T02:22:48;1.80;99.90
25568;DHT22;13455;51.480;7.594;2024-01-07T02:25:14;2.40;99.90
25568;DHT22;13455;51.480;7.594;2024-01-07T02:27:39;1.70;99.90
25568;DHT22;13455;51.480;7.594;2024-01-07T02:30:05;1.70;99.90
25568;DHT22;13455;51.480;7.594;2024-01-07T02:32:31;1.70;99.90
25568;DHT22;13455;51.480;7.594;2024-01-07T02:35:00;1.70;99.90
25568;DHT22;13455;51.480;7.594;2024-01-07T02:37:25;1.70;99.90
25568;DHT22;13455;51.480;7.594;2024-01-07T02:39:53;1.70;99.90
25568;DHT22;13455;51.480;7.594;2024-01-07T02:42:18;1.70;99.90
25568;DHT22;13455;51.480;7.594;2024-01-07T02:44:44;1.80;99.90
25568;DHT22;13455;51.480;7.594;2024-01-07T02:47:10;1.70;99.90
25568;DHT22;13455;51.480;7.594;2024-01-07T02:49:35;1.70;99.90
25568;DHT22;13455;51.480;7.594;2024-01-07T02:52:01;1.70;99.90
25568;DHT22;13455;51.480;7.594;2024-01-07T02:54:26;1.70;99.90
25568;DHT22;13455;51.480;7.594;2024-01-07T02:56:52;1.70;99.90
25568;DHT22;13455;51.480;7.594;2024-01-07T02:59:17;1.70;99.90
25568;DHT22;13455;51.480;7.594;2024-01-07T03:01:43;1.70;99.90
25568;DHT22;13455;51.480;7.594;2024-01-07T03:04:11;1.70;99.90
25568;DHT22;13455;51.480;7.594;2024-01-07T03:06:37;1.80;99.90
25568;DHT22;13455;51.480;7.594;2024-01-07T03:09:03;1.70;99.90
25568;DHT22;13455;51.480;7.594;2024-01-07T03:11:29;1.70;99.90
25568;DHT22;13455;51.480;7.594;2024-01-07T03:13:55;1.70;99.90
25568;DHT22;13455;51.480;7.594;2024-01-07T03:16:22;1.70;99.90
25568;DHT22;13455;51.480;7.594;2024-01-07T03:18:48;1.70;99.90
25568;DHT22;13455;51.480;7.594;2024-01-07T03:21:21;1.70;99.90
25568;DHT22;13455;51.480;7.594;2024-01-07T03:23:47;2.80;99.90
25568;DHT22;13455;51.480;7.594;2024-01-07T03:26:13;1.70;99.90
25568;DHT22;13455;51.480;7.594;2024-01-07T03:28:39;1.60;99.90
25568;DHT22;13455;51.480;7.594;2024-01-07T03:31:09;1.70;99.90
25568;DHT22;13455;51.480;7.594;2024-01-07T03:33:37;1.70;99.90
25568;DHT22;13455;51.480;7.594;2024-01-07T03:36:10;1.70;99.90
25568;DHT22;13455;51.480;7.594;2024-01-07T03:38:36;1.70;99.90
25568;DHT22;13455;51.480;7.594;2024-01-07T03:41:02;1.60;99.90
25568;DHT22;13455;51.480;7.594;2024-01-07T03:43:28;1.60;99.90
25568;DHT22;13455;51.480;7.594;2024-01-07T03:45:54;1.60;99.90
25568;DHT22;13455;51.480;7.594;2024-01-07T03:48:20;1.60;99.90
25568;DHT22;13455;51.480;7.594;2024-01-07T03:50:45;1.50;99.90
25568;DHT22;13455;51.480;7.594;2024-01-07T03:53:11;1.50;99.90
25568;DHT22;13455;51.480;7.594;2024-01-07T03:55:37;1.40;99.90
25568;DHT22;13455;51.480;7.594;2024-01-07T03:58:03;1.40;99.90
25568;DHT22;13455;51.480;7.594;2024-01-07T04:00:29;1.40;99.90
25568;DHT22;13455;51.480;7.594;2024-01-07T04:02:54;1.50;99.90
25568;DHT22;13455;51.480;7.594;2024-01-07T04:05:20;1.50;99.90
25568;DHT22;13455;51.480;7.594;2024-01-07T04:07:46;1.50;99.90
25568;DHT22;13455;51.480;7.594;2024-01-07T04:10:11;1.50;99.90
25568;DHT22;13455;51.480;7.594;2024-01-07T04:12:37;1.50;99.90
25568;DHT22;13455;51.480;7.594;2024-01-07T04:15:03;1.40;99.90
25568;DHT22;13455;51.480;7.594;2024-01-07T04:17:29;1.50;99.90
25568;DHT22;13455;51.480;7.594;2024-01-07T04:19:55;1.40;99.90
25568;DHT22;13455;51.480;7.594;2024-01-07T04:22:21;1.40;99.90
25568;DHT22;13455;51.480;7.594;2024-01-07T04:24:46;1.40;99.90
25568;DHT22;13455;51.480;7.594;2024-01-07T04:27:12;1.30;99.90
25568;DHT22;13455;51.480;7.594;2024-01-07T04:29:38;1.40;99.90
25568;DHT22;13455;51.480;7.594;2024-01-07T04:32:03;1.40;99.90
25568;DHT22;13455;51.480;7.594;2024-01-07T04:34:29;1.40;99.90
25568;DHT22;13455;51.480;7.594;2024-01-07T04:36:55;0.80;99.90
25568;DHT22;13455;51.480;7.594;2024-01-07T04:39:20;1.30;99.90
25568;DHT22;13455;51.480;7.594;2024-01-07T04:41:46;1.30;99.90
25568;DHT22;13455;51.480;7.594;2024-01-07T04:44:12;1.30;99.90
25568;DHT22;13455;51.480;7.594;2024-01-07T04:46:38;1.30;99.90
25568;DHT22;13455;51.480;7.594;2024-01-07T04:49:04;1.30;99.90
25568;DHT22;13455;51.480;7.594;2024-01-07T04:51:31;1.30;99.90
25568;DHT22;13455;51.480;7.594;2024-01-07T04:53:57;1.30;99.90
25568;DHT22;13455;51.480;7.594;2024-01-07T04:56:22;1.30;99.90
25568;DHT22;13455;51.480;7.594;2024-01-07T04:58:48;1.30;99.90
25568;DHT22;13455;51.480;7.594;2024-01-07T05:01:13;1.30;99.90
25568;DHT22;13455;51.480;7.594;2024-01-07T05:03:39;1.20;99.90
25568;DHT22;13455;51.480;7.594;2024-01-07T05:06:05;1.10;99.90
25568;DHT22;13455;51.480;7.594;2024-01-07T05:08:30;1.20;99.90
25568;DHT22;13455;51.480;7.594;2024-01-07T05:10:56;1.20;99.90
25568;DHT22;13455;51.480;7.594;2024-01-07T05:13:22;1.20;99.90
25568;DHT22;13455;51.480;7.594;2024-01-07T05:15:48;1.20;99.90
25568;DHT22;13455;51.480;7.594;2024-01-07T05:18:21;1.10;99.90
25568;DHT22;13455;51.480;7.594;2024-01-07T05:20:47;1.10;99.90
25568;DHT22;13455;51.480;7.594;2024-01-07T05:23:12;1.20;99.90
25568;DHT22;13455;51.480;7.594;2024-01-07T05:25:38;1.20;99.90
25568;DHT22;13455;51.480;7.594;2024-01-07T05:28:04;1.10;99.90
25568;DHT22;13455;51.480;7.594;2024-01-07T05:30:29;1.20;99.90
25568;DHT22;13455;51.480;7.594;2024-01-07T05:32:55;1.20;99.90
25568;DHT22;13455;51.480;7.594;2024-01-07T05:35:21;1.20;99.90
25568;DHT22;13455;51.480;7.594;2024-01-07T05:37:46;1.20;99.90
25568;DHT22;13455;51.480;7.594;2024-01-07T05:40:12;1.10;99.90
25568;DHT22;13455;51.480;7.594;2024-01-07T05:42:37;1.10;99.90
25568;DHT22;13455;51.480;7.594;2024-01-07T05:45:03;1.10;99.90
25568;DHT22;13455;51.480;7.594;2024-01-07T05:47:29;1.10;99.90
25568;DHT22;13455;51.480;7.594;2024-01-07T05:49:55;1.00;99.90
25568;DHT22;13455;51.480;7.594;2024-01-07T05:52:21;1.10;99.90
25568;DHT22;13455;51.480;7.594;2024-01-07T05:54:47;1.10;99.90
25568;DHT22;13455;51.480;7.594;2024-01-07T05:57:12;1.10;99.90
25568;DHT22;13455;51.480;7.594;2024-01-07T05:59:38;1.10;99.90
25568;DHT22;13455;51.480;7.594;2024-01-07T06:02:03;1.10;99.90
25568;DHT22;13455;51.480;7.594;2024-01-07T06:04:29;1.00;99.90
25568;DHT22;13455;51.480;7.594;2024-01-07T06:06:55;1.10;99.90
25568;DHT22;13455;51.480;7.594;2024-01-07T06:09:21;1.00;99.90
25568;DHT22;13455;51.480;7.594;2024-01-07T06:11:46;1.00;99.90
25568;DHT22;13455;51.480;7.594;2024-01-07T06:14:12;1.00;99.90
25568;DHT22;13455;51.480;7.594;2024-01-07T06:16:38;1.00;99.90
25568;DHT22;13455;51.480;7.594;2024-01-07T06:19:03;1.00;99.90
25568;DHT22;13455;51.480;7.594;2024-01-07T06:21:29;1.10;99.90
25568;DHT22;13455;51.480;7.594;2024-01-07T06:23:54;1.00;99.90
25568;DHT22;13455;51.480;7.594;2024-01-07T06:26:20;1.00;99.90
25568;DHT22;13455;51.480;7.594;2024-01-07T06:28:46;1.00;99.90
25568;DHT22;13455;51.480;7.594;2024-01-07T06:31:11;1.00;99.90
25568;DHT22;13455;51.480;7.594;2024-01-07T06:33:37;1.00;99.90
25568;DHT22;13455;51.480;7.594;2024-01-07T06:36:02;0.90;99.90
25568;DHT22;13455;51.480;7.594;2024-01-07T06:38:29;0.90;99.90
25568;DHT22;13455;51.480;7.594;2024-01-07T06:40:55;0.90;99.90
25568;DHT22;13455;51.480;7.594;2024-01-07T06:43:24;0.90;99.90
25568;DHT22;13455;51.480;7.594;2024-01-07T06:45:50;0.90;99.90
25568;DHT22;13455;51.480;7.594;2024-01-07T06:48:15;0.90;99.90
25568;DHT22;13455;51.480;7.594;2024-01-07T06:50:41;0.90;99.90
25568;DHT22;13455;51.480;7.594;2024-01-07T06:53:07;0.90;99.90
25568;DHT22;13455;51.480;7.594;2024-01-07T06:55:32;0.80;99.90
25568;DHT22;13455;51.480;7.594;2024-01-07T06:57:58;0.90;99.90
25568;DHT22;13455;51.480;7.594;2024-01-07T07:00:23;1.00;99.90
25568;DHT22;13455;51.480;7.594;2024-01-07T07:02:49;0.90;99.90
25568;DHT22;13455;51.480;7.594;2024-01-07T07:05:15;0.90;99.90
25568;DHT22;13455;51.480;7.594;2024-01-07T07:07:41;0.90;99.90
25568;DHT22;13455;51.480;7.594;2024-01-07T07:10:06;0.90;99.90
25568;DHT22;13455;51.480;7.594;2024-01-07T07:12:32;0.90;99.90
25568;DHT22;13455;51.480;7.594;2024-01-07T07:14:58;0.80;99.90
25568;DHT22;13455;51.480;7.594;2024-01-07T07:17:23;0.90;99.90
25568;DHT22;13455;51.480;7.594;2024-01-07T07:19:49;0.90;99.90
25568;DHT22;13455;51.480;7.594;2024-01-07T07:22:14;1.00;99.90
25568;DHT22;13455;51.480;7.594;2024-01-07T07:24:41;1.00;99.90
25568;DHT22;13455;51.480;7.594;2024-01-07T07:27:07;0.90;99.90
25568;DHT22;13455;51.480;7.594;2024-01-07T07:29:32;0.90;99.90
25568;DHT22;13455;51.480;7.594;2024-01-07T07:31:58;0.90;99.90
25568;DHT22;13455;51.480;7.594;2024-01-07T07:34:24;0.80;99.90
25568;DHT22;13455;51.480;7.594;2024-01-07T07:36:50;0.80;99.90
25568;DHT22;13455;51.480;7.594;2024-01-07T07:39:15;0.80;99.90
25568;DHT22;13455;51.480;7.594;2024-01-07T07:41:41;0.20;99.90
25568;DHT22;13455;51.480;7.594;2024-01-07T07:44:06;0.70;99.90
25568;DHT22;13455;51.480;7.594;2024-01-07T07:46:32;0.60;99.90
25568;DHT22;13455;51.480;7.594;2024-01-07T07:48:57;0.50;99.90
25568;DHT22;13455;51.480;7.594;2024-01-07T07:51:23;0.40;99.90
25568;DHT22;13455;51.480;7.594;2024-01-07T07:53:49;0.40;99.90
25568;DHT22;13455;51.480;7.594;2024-01-07T07:56:15;0.30;99.90
25568;DHT22;13455;51.480;7.594;2024-01-07T07:58:40;0.30;99.90
25568;DHT22;13455;51.480;7.594;2024-01-07T08:01:06;0.20;99.90
25568;DHT22;13455;51.480;7.594;2024-01-07T08:03:32;0.20;99.90
25568;DHT22;13455;51.480;7.594;2024-01-07T08:05:58;0.20;99.90
25568;DHT22;13455;51.480;7.594;2024-01-07T08:08:23;0.30;99.90
25568;DHT22;13455;51.480;7.594;2024-01-07T08:10:49;0.30;99.90
25568;DHT22;13455;51.480;7.594;2024-01-07T08:13:14;0.30;99.90
25568;DHT22;13455;51.480;7.594;2024-01-07T08:15:40;0.30;99.90
25568;DHT22;13455;51.480;7.594;2024-01-07T08:18:05;0.20;99.90
25568;DHT22;13455;51.480;7.594;2024-01-07T08:20:31;0.30;99.90
25568;DHT22;13455;51.480;7.594;2024-01-07T08:22:57;0.20;99.90
25568;DHT22;13455;51.480;7.594;2024-01-07T08:25:22;0.30;99.90
25568;DHT22;13455;51.480;7.594;2024-01-07T08:27:48;0.30;99.90
25568;DHT22;13455;51.480;7.594;2024-01-07T08:30:14;0.20;99.90
25568;DHT22;13455;51.480;7.594;2024-01-07T08:32:40;0.20;99.90
25568;DHT22;13455;51.480;7.594;2024-01-07T08:35:06;0.20;99.90
25568;DHT22;13455;51.480;7.594;2024-01-07T08:37:32;0.10;99.90
25568;DHT22;13455;51.480;7.594;2024-01-07T08:39:58;0.10;99.90
25568;DHT22;13455;51.480;7.594;2024-01-07T08:42:25;0.10;99.90
25568;DHT22;13455;51.480;7.594;2024-01-07T08:44:50;0.10;99.90
25568;DHT22;13455;51.480;7.594;2024-01-07T08:47:16;0.10;99.90
25568;DHT22;13455;51.480;7.594;2024-01-07T08:49:41;0.20;99.90
25568;DHT22;13455;51.480;7.594;2024-01-07T08:52:07;0.20;99.90
25568;DHT22;13455;51.480;7.594;2024-01-07T08:54:33;0.20;99.90
25568;DHT22;13455;51.480;7.594;2024-01-07T08:56:58;0.20;99.90
25568;DHT22;13455;51.480;7.594;2024-01-07T08:59:24;0.20;99.90
25568;DHT22;13455;51.480;7.594;2024-01-07T09:01:49;0.20;99.90
25568;DHT22;13455;51.480;7.594;2024-01-07T09:04:15;0.20;99.90
25568;DHT22;13455;51.480;7.594;2024-01-07T09:06:45;0.30;99.90
25568;DHT22;13455;51.480;7.594;2024-01-07T09:09:11;0.20;99.90
25568;DHT22;13455;51.480;7.594;2024-01-07T09:11:37;0.20;99.90
25568;DHT22;13455;51.480;7.594;2024-01-07T09:14:03;0.20;99.90
25568;DHT22;13455;51.480;7.594;2024-01-07T09:16:29;0.20;99.90
25568;DHT22;13455;51.480;7.594;2024-01-07T09:18:55;0.10;99.90
25568;DHT22;13455;51.480;7.594;2024-01-07T09:21:20;0.00;99.90
25568;DHT22;13455;51.480;7.594;2024-01-07T09:23:48;0.00;99.90
25568;DHT22;13455;51.480;7.594;2024-01-07T09:26:14;0.00;99.90
25568;DHT22;13455;51.480;7.594;2024-01-07T09:28:39;0.10;99.90
25568;DHT22;13455;51.480;7.594;2024-01-07T09:31:05;0.10;99.90
25568;DHT22;13455;51.480;7.594;2024-01-07T09:33:31;0.00;99.90
25568;DHT22;13455;51.480;7.594;2024-01-07T09:35:57;0.10;99.90
25568;DHT22;13455;51.480;7.594;2024-01-07T09:38:22;0.10;99.90
25568;DHT22;13455;51.480;7.594;2024-01-07T09:40:50;0.10;99.90
25568;DHT22;13455;51.480;7.594;2024-01-07T09:43:16;0.10;99.90
25568;DHT22;13455;51.480;7.594;2024-01-07T09:45:42;0.10;99.90
25568;DHT22;13455;51.480;7.594;2024-01-07T09:48:11;0.10;99.90
25568;DHT22;13455;51.480;7.594;2024-01-07T09:50:37;0.10;99.90
25568;DHT22;13455;51.480;7.594;2024-01-07T09:53:02;0.00;99.90
25568;DHT22;13455;51.480;7.594;2024-01-07T09:55:34;0.10;99.90
25568;DHT22;13455;51.480;7.594;2024-01-07T09:58:02;0.00;99.90
25568;DHT22;13455;51.480;7.594;2024-01-07T10:00:28;0.00;99.90
25568;DHT22;13455;51.480;7.594;2024-01-07T10:02:55;0.00;99.90
25568;DHT22;13455;51.480;7.594;2024-01-07T10:05:20;0.00;99.90
25568;DHT22;13455;51.480;7.594;2024-01-07T10:07:46;0.00;99.90
25568;DHT22;13455;51.480;7.594;2024-01-07T10:10:14;0.10;99.90
25568;DHT22;13455;51.480;7.594;2024-01-07T10:12:39;0.00;99.90
25568;DHT22;13455;51.480;7.594;2024-01-07T10:15:05;0.00;99.90
25568;DHT22;13455;51.480;7.594;2024-01-07T10:17:31;0.00;99.90
25568;DHT22;13455;51.480;7.594;2024-01-07T10:19:56;0.00;99.90
25568;DHT22;13455;51.480;7.594;2024-01-07T10:22:23;0.00;99.90
25568;DHT22;13455;51.480;7.594;2024-01-07T10:24:51;1.00;99.90
25568;DHT22;13455;51.480;7.594;2024-01-07T10:27:17;0.10;99.90
25568;DHT22;13455;51.480;7.594;2024-01-07T10:29:42;0.00;99.90
25568;DHT22;13455;51.480;7.594;2024-01-07T10:32:08;0.00;99.90
25568;DHT22;13455;51.480;7.594;2024-01-07T10:34:35;0.70;99.90
25568;DHT22;13455;51.480;7.594;2024-01-07T10:37:02;0.10;99.90
25568;DHT22;13455;51.480;7.594;2024-01-07T10:39:29;0.10;99.90
25568;DHT22;13455;51.480;7.594;2024-01-07T10:41:56;0.00;99.90
25568;DHT22;13455;51.480;7.594;2024-01-07T10:44:32;0.10;99.90
25568;DHT22;13455;51.480;7.594;2024-01-07T10:46:58;0.10;99.90
25568;DHT22;13455;51.480;7.594;2024-01-07T10:49:25;0.10;99.90
25568;DHT22;13455;51.480;7.594;2024-01-07T10:52:11;0.10;99.90
25568;DHT22;13455;51.480;7.594;2024-01-07T10:54:37;0.20;99.90
25568;DHT22;13455;51.480;7.594;2024-01-07T10:59:38;0.10;99.90
25568;DHT22;13455;51.480;7.594;2024-01-07T11:02:07;0.10;99.90
25568;DHT22;13455;51.480;7.594;2024-01-07T11:07:15;0.20;99.90
25568;DHT22;13455;51.480;7.594;2024-01-07T11:12:11;0.10;99.90
25568;DHT22;13455;51.480;7.594;2024-01-07T11:14:44;0.10;99.90
25568;DHT22;13455;51.480;7.594;2024-01-07T11:20:06;0.10;99.90
25568;DHT22;13455;51.480;7.594;2024-01-07T11:22:33;0.10;99.90
25568;DHT22;13455;51.480;7.594;2024-01-07T11:25:02;0.10;99.90
25568;DHT22;13455;51.480;7.594;2024-01-07T11:27:31;0.00;99.90
25568;DHT22;13455;51.480;7.594;2024-01-07T11:30:17;0.10;99.90
25568;DHT22;13455;51.480;7.594;2024-01-07T11:32:45;0.10;99.90
25568;DHT22;13455;51.480;7.594;2024-01-07T11:35:13;0.10;99.90
25568;DHT22;13455;51.480;7.594;2024-01-07T11:37:38;0.10;99.90
25568;DHT22;13455;51.480;7.594;2024-01-07T11:40:06;0.10;99.90
25568;DHT22;13455;51.480;7.594;2024-01-07T11:42:32;0.10;99.90
25568;DHT22;13455;51.480;7.594;2024-01-07T11:52:20;-0.10;99.90
25568;DHT22;13455;51.480;7.594;2024-01-07T11:57:13;-0.20;99.90
25568;DHT22;13455;51.480;7.594;2024-01-07T11:59:39;-0.10;99.90
25568;DHT22;13455;51.480;7.594;2024-01-07T12:02:05;-0.20;99.90
25568;DHT22;13455;51.480;7.594;2024-01-07T12:04:34;-0.30;99.90
25568;DHT22;13455;51.480;7.594;2024-01-07T12:07:01;-0.20;99.90
25568;DHT22;13455;51.480;7.594;2024-01-07T12:09:27;-0.20;99.90
25568;DHT22;13455;51.480;7.594;2024-01-07T12:11:53;-0.10;99.90
25568;DHT22;13455;51.480;7.594;2024-01-07T12:14:19;-0.20;99.90
25568;DHT22;13455;51.480;7.594;2024-01-07T12:16:46;-0.20;99.90
25568;DHT22;13455;51.480;7.594;2024-01-07T12:19:12;-0.10;99.90
25568;DHT22;13455;51.480;7.594;2024-01-07T12:21:37;-0.20;99.90
25568;DHT22;13455;51.480;7.594;2024-01-07T12:24:04;-0.10;99.90
25568;DHT22;13455;51.480;7.594;2024-01-07T12:26:30;-0.10;99.90
25568;DHT22;13455;51.480;7.594;2024-01-07T12:28:58;-0.20;99.90
25568;DHT22;13455;51.480;7.594;2024-01-07T12:31:33;-0.10;99.90
25568;DHT22;13455;51.480;7.594;2024-01-07T12:33:59;-0.20;99.90
25568;DHT22;13455;51.480;7.594;2024-01-07T12:36:26;-0.10;99.90
25568;DHT22;13455;51.480;7.594;2024-01-07T12:38:52;0.00;99.90
25568;DHT22;13455;51.480;7.594;2024-01-07T12:41:22;-0.20;99.90
25568;DHT22;13455;51.480;7.594;2024-01-07T12:43:48;-0.20;99.90
25568;DHT22;13455;51.480;7.594;2024-01-07T12:46:14;0.10;99.90
25568;DHT22;13455;51.480;7.594;2024-01-07T12:48:40;0.00;99.90
25568;DHT22;13455;51.480;7.594;2024-01-07T12:51:05;0.00;99.90
25568;DHT22;13455;51.480;7.594;2024-01-07T12:53:31;-0.30;99.90
25568;DHT22;13455;51.480;7.594;2024-01-07T12:58:23;-0.40;99.90
25568;DHT22;13455;51.480;7.594;2024-01-07T13:00:49;-0.20;99.90
25568;DHT22;13455;51.480;7.594;2024-01-07T13:13:06;0.10;99.90
25568;DHT22;13455;51.480;7.594;2024-01-07T13:15:32;0.00;99.90
25568;DHT22;13455;51.480;7.594;2024-01-07T13:17:58;0.30;99.90
25568;DHT22;13455;51.480;7.594;2024-01-07T13:20:23;-0.10;99.90
25568;DHT22;13455;51.480;7.594;2024-01-07T13:22:49;-0.10;99.90
25568;DHT22;13455;51.480;7.594;2024-01-07T13:25:15;-0.10;99.90
25568;DHT22;13455;51.480;7.594;2024-01-07T13:37:28;-0.10;99.90
25568;DHT22;13455;51.480;7.594;2024-01-07T13:39:54;-0.10;99.90
25568;DHT22;13455;51.480;7.594;2024-01-07T13:47:12;-0.10;99.90
25568;DHT22;13455;51.480;7.594;2024-01-07T13:49:40;-0.20;99.90
25568;DHT22;13455;51.480;7.594;2024-01-07T13:52:06;-0.20;99.90
25568;DHT22;13455;51.480;7.594;2024-01-07T13:54:31;-0.30;99.90
25568;DHT22;13455;51.480;7.594;2024-01-07T13:56:57;-0.20;99.90
25568;DHT22;13455;51.480;7.594;2024-01-07T13:59:22;-0.20;99.90
25568;DHT22;13455;51.480;7.594;2024-01-07T14:01:48;-0.20;99.90
25568;DHT22;13455;51.480;7.594;2024-01-07T14:04:14;-0.20;99.90
25568;DHT22;13455;51.480;7.594;2024-01-07T14:06:40;-0.20;99.90
25568;DHT22;13455;51.480;7.594;2024-01-07T14:09:06;-0.20;99.90
25568;DHT22;13455;51.480;7.594;2024-01-07T14:11:34;-0.10;99.90
25568;DHT22;13455;51.480;7.594;2024-01-07T14:14:00;-0.10;99.90
25568;DHT22;13455;51.480;7.594;2024-01-07T14:16:27;0.00;99.90
25568;DHT22;13455;51.480;7.594;2024-01-07T14:18:53;-0.30;99.90
25568;DHT22;13455;51.480;7.594;2024-01-07T14:21:19;0.00;99.90
25568;DHT22;13455;51.480;7.594;2024-01-07T14:23:44;-0.20;99.90
25568;DHT22;13455;51.480;7.594;2024-01-07T14:26:10;-0.20;99.90
25568;DHT22;13455;51.480;7.594;2024-01-07T14:28:35;0.00;99.90
25568;DHT22;13455;51.480;7.594;2024-01-07T14:31:01;-0.10;99.90
25568;DHT22;13455;51.480;7.594;2024-01-07T14:33:29;-0.20;99.90
25568;DHT22;13455;51.480;7.594;2024-01-07T14:35:54;-0.20;99.90
25568;DHT22;13455;51.480;7.594;2024-01-07T14:38:20;-0.30;99.90
25568;DHT22;13455;51.480;7.594;2024-01-07T14:40:48;0.00;99.90
25568;DHT22;13455;51.480;7.594;2024-01-07T14:43:13;0.00;99.90
25568;DHT22;13455;51.480;7.594;2024-01-07T14:45:39;0.10;99.90
25568;DHT22;13455;51.480;7.594;2024-01-07T14:48:05;-0.20;99.90
25568;DHT22;13455;51.480;7.594;2024-01-07T14:50:31;-0.20;99.90
25568;DHT22;13455;51.480;7.594;2024-01-07T14:52:57;-0.10;99.90
25568;DHT22;13455;51.480;7.594;2024-01-07T14:55:23;0.00;99.90
25568;DHT22;13455;51.480;7.594;2024-01-07T14:57:49;0.00;99.90
25568;DHT22;13455;51.480;7.594;2024-01-07T15:00:15;0.00;99.90
25568;DHT22;13455;51.480;7.594;2024-01-07T15:02:40;0.00;99.90
25568;DHT22;13455;51.480;7.594;2024-01-07T15:05:06;-0.10;99.90
25568;DHT22;13455;51.480;7.594;2024-01-07T15:07:32;-0.30;99.90
25568;DHT22;13455;51.480;7.594;2024-01-07T15:09:57;-0.20;99.90
25568;DHT22;13455;51.480;7.594;2024-01-07T15:12:25;0.00;99.90
25568;DHT22;13455;51.480;7.594;2024-01-07T15:14:50;-0.20;99.90
25568;DHT22;13455;51.480;7.594;2024-01-07T15:17:16;-0.10;99.90
25568;DHT22;13455;51.480;7.594;2024-01-07T15:19:44;-0.10;99.90
25568;DHT22;13455;51.480;7.594;2024-01-07T15:22:11;-0.30;99.90
25568;DHT22;13455;51.480;7.594;2024-01-07T15:24:37;-0.20;99.90
25568;DHT22;13455;51.480;7.594;2024-01-07T15:27:02;-0.30;99.90
25568;DHT22;13455;51.480;7.594;2024-01-07T15:29:28;-0.30;99.90
25568;DHT22;13455;51.480;7.594;2024-01-07T15:31:53;-0.20;99.90
25568;DHT22;13455;51.480;7.594;2024-01-07T15:34:19;-0.30;99.90
25568;DHT22;13455;51.480;7.594;2024-01-07T15:36:45;-0.20;99.90
25568;DHT22;13455;51.480;7.594;2024-01-07T15:39:10;0.10;99.90
25568;DHT22;13455;51.480;7.594;2024-01-07T15:41:36;-0.50;99.90
25568;DHT22;13455;51.480;7.594;2024-01-07T15:44:02;-0.30;99.90
25568;DHT22;13455;51.480;7.594;2024-01-07T15:46:27;-0.20;99.90
25568;DHT22;13455;51.480;7.594;2024-01-07T15:48:53;-0.30;99.90
25568;DHT22;13455;51.480;7.594;2024-01-07T15:51:19;-0.20;99.90
25568;DHT22;13455;51.480;7.594;2024-01-07T15:53:44;-0.30;99.90
25568;DHT22;13455;51.480;7.594;2024-01-07T15:56:10;-0.20;99.90
25568;DHT22;13455;51.480;7.594;2024-01-07T15:58:37;-0.30;99.90
25568;DHT22;13455;51.480;7.594;2024-01-07T16:01:03;-0.30;99.90
25568;DHT22;13455;51.480;7.594;2024-01-07T16:03:30;-0.20;99.90
25568;DHT22;13455;51.480;7.594;2024-01-07T16:05:56;-0.20;99.90
25568;DHT22;13455;51.480;7.594;2024-01-07T16:08:23;-0.20;99.90
25568;DHT22;13455;51.480;7.594;2024-01-07T16:10:51;-0.20;99.90
25568;DHT22;13455;51.480;7.594;2024-01-07T16:13:17;-0.10;99.90
25568;DHT22;13455;51.480;7.594;2024-01-07T16:15:43;-0.10;99.90
25568;DHT22;13455;51.480;7.594;2024-01-07T16:18:08;0.00;99.90
25568;DHT22;13455;51.480;7.594;2024-01-07T16:20:34;-0.10;99.90
25568;DHT22;13455;51.480;7.594;2024-01-07T16:23:00;-0.10;99.90
25568;DHT22;13455;51.480;7.594;2024-01-07T16:25:26;-0.10;99.90
25568;DHT22;13455;51.480;7.594;2024-01-07T16:27:52;-0.10;99.90
25568;DHT22;13455;51.480;7.594;2024-01-07T16:30:18;-0.20;99.90